sensor_id;sensor_type;location;lat;lon;timestamp;P1;P2;P0
80692;PMS5003;70055;39.436;-77.514;2023-12-04T00:00:11;14;14;
80692;PMS5003;70055;39.436;-77.514;2023-12-04T00:02:39;15;14;
80692;PMS5003;70055;39.436;-77.514;2023-12-04T00:05:08;15;14;
80692;PMS5003;70055;39.436;-77.514;2023-12-04T00:07:36;16;15;
80692;PMS5003;70055;39.436;-77.514;2023-12-04T00:10:05;16;16;
80692;PMS5003;70055;39.436;-77.514;2023-12-04T00:12:34;13;11;
80692;PMS5003;70055;39.436;-77.514;2023-12-04T00:15:02;16;15;
80692;PMS5003;70055;39.436;-77.514;2023-12-04T00:17:31;20;18;
80692;PMS5003;70055;39.436;-77.514;2023-12-04T00:19:59;19;19;
80692;PMS5003;70055;39.436;-77.514;2023-12-04T00:22:27;21;19;
80692;PMS5003;70055;39.436;-77.514;2023-12-04T00:24:55;18;18;
80692;PMS5003;70055;39.436;-77.514;2023-12-04T00:27:24;19;18;
80692;PMS5003;70055;39.436;-77.514;2023-12-04T00:29:52;19;18;
80692;PMS5003;70055;39.436;-77.514;2023-12-04T00:32:20;21;21;
80692;PMS5003;70055;39.436;-77.514;2023-12-04T00:34:48;18;18;
80692;PMS5003;70055;39.436;-77.514;2023-12-04T00:37:16;21;18;
80692;PMS5003;70055;39.436;-77.514;2023-12-04T00:39:44;25;24;
80692;PMS5003;70055;39.436;-77.514;2023-12-04T00:42:14;26;24;
80692;PMS5003;70055;39.436;-77.514;2023-12-04T00:44:43;27;26;
80692;PMS5003;70055;39.436;-77.514;2023-12-04T00:47:11;26;26;
80692;PMS5003;70055;39.436;-77.514;2023-12-04T00:49:40;25;24;
80692;PMS5003;70055;39.436;-77.514;2023-12-04T00:52:07;28;26;
80692;PMS5003;70055;39.436;-77.514;2023-12-04T00:54:39;25;24;
80692;PMS5003;70055;39.436;-77.514;2023-12-04T00:57:07;24;23;
80692;PMS5003;70055;39.436;-77.514;2023-12-04T00:59:36;31;30;
80692;PMS5003;70055;39.436;-77.514;2023-12-04T01:02:04;24;22;
80692;PMS5003;70055;39.436;-77.514;2023-12-04T01:04:32;19;19;
80692;PMS5003;70055;39.436;-77.514;2023-12-04T01:07:00;26;24;
80692;PMS5003;70055;39.436;-77.514;2023-12-04T01:09:29;25;24;
80692;PMS5003;70055;39.436;-77.514;2023-12-04T01:11:57;26;22;
80692;PMS5003;70055;39.436;-77.514;2023-12-04T01:14:25;25;24;
80692;PMS5003;70055;39.436;-77.514;2023-12-04T01:16:54;27;26;
80692;PMS5003;70055;39.436;-77.514;2023-12-04T01:19:22;20;19;
80692;PMS5003;70055;39.436;-77.514;2023-12-04T01:21:52;19;19;
80692;PMS5003;70055;39.436;-77.514;2023-12-04T01:24:19;23;23;
80692;PMS5003;70055;39.436;-77.514;2023-12-04T01:26:48;16;16;
80692;PMS5003;70055;39.436;-77.514;2023-12-04T01:29:16;23;23;
80692;PMS5003;70055;39.436;-77.514;2023-12-04T01:31:44;20;18;
80692;PMS5003;70055;39.436;-77.514;2023-12-04T01:34:12;23;21;
80692;PMS5003;70055;39.436;-77.514;2023-12-04T01:36:41;31;28;
80692;PMS5003;70055;39.436;-77.514;2023-12-04T01:39:09;14;13;
80692;PMS5003;70055;39.436;-77.514;2023-12-04T01:41:38;14;13;
80692;PMS5003;70055;39.436;-77.514;2023-12-04T01:44:05;19;16;
80692;PMS5003;70055;39.436;-77.514;2023-12-04T01:46:33;18;18;
80692;PMS5003;70055;39.436;-77.514;2023-12-04T01:49:02;20;19;
80692;PMS5003;70055;39.436;-77.514;2023-12-04T01:51:31;21;20;
80692;PMS5003;70055;39.436;-77.514;2023-12-04T01:53:59;21;19;
80692;PMS5003;70055;39.436;-77.514;2023-12-04T01:56:29;18;18;
80692;PMS5003;70055;39.436;-77.514;2023-12-04T01:58:57;17;15;
80692;PMS5003;70055;39.436;-77.514;2023-12-04T02:01:27;18;16;
80692;PMS5003;70055;39.436;-77.514;2023-12-04T02:03:55;17;17;
80692;PMS5003;70055;39.436;-77.514;2023-12-04T02:06:24;15;15;
80692;PMS5003;70055;39.436;-77.514;2023-12-04T02:08:53;15;14;
80692;PMS5003;70055;39.436;-77.514;2023-12-04T02:11:23;13;12;
80692;PMS5003;70055;39.436;-77.514;2023-12-04T02:13:51;14;13;
80692;PMS5003;70055;39.436;-77.514;2023-12-04T02:16:20;11;10;
80692;PMS5003;70055;39.436;-77.514;2023-12-04T02:18:52;9;9;
80692;PMS5003;70055;39.436;-77.514;2023-12-04T02:21:20;10;9;
80692;PMS5003;70055;39.436;-77.514;2023-12-04T02:23:49;11;10;
80692;PMS5003;70055;39.436;-77.514;2023-12-04T02:26:18;9;7;
80692;PMS5003;70055;39.436;-77.514;2023-12-04T02:28:55;8;8;
80692;PMS5003;70055;39.436;-77.514;2023-12-04T02:31:27;6;6;
80692;PMS5003;70055;39.436;-77.514;2023-12-04T02:33:58;6;6;
80692;PMS5003;70055;39.436;-77.514;2023-12-04T02:36:27;7;7;
80692;PMS5003;70055;39.436;-77.514;2023-12-04T02:38:57;6;6;
80692;PMS5003;70055;39.436;-77.514;2023-12-04T02:41:25;9;9;
80692;PMS5003;70055;39.436;-77.514;2023-12-04T02:43:54;9;9;
80692;PMS5003;70055;39.436;-77.514;2023-12-04T02:46:22;9;9;
80692;PMS5003;70055;39.436;-77.514;2023-12-04T02:48:50;7;7;
80692;PMS5003;70055;39.436;-77.514;2023-12-04T02:51:18;6;6;
80692;PMS5003;70055;39.436;-77.514;2023-12-04T02:53:47;5;5;
80692;PMS5003;70055;39.436;-77.514;2023-12-04T02:56:15;7;7;
80692;PMS5003;70055;39.436;-77.514;2023-12-04T02:58:43;8;8;
80692;PMS5003;70055;39.436;-77.514;2023-12-04T03:01:11;7;5;
80692;PMS5003;70055;39.436;-77.514;2023-12-04T03:03:40;7;7;
80692;PMS5003;70055;39.436;-77.514;2023-12-04T03:06:08;5;5;
80692;PMS5003;70055;39.436;-77.514;2023-12-04T03:08:36;4;4;
80692;PMS5003;70055;39.436;-77.514;2023-12-04T03:11:04;6;6;
80692;PMS5003;70055;39.436;-77.514;2023-12-04T03:13:33;8;8;
80692;PMS5003;70055;39.436;-77.514;2023-12-04T03:16:01;5;5;
80692;PMS5003;70055;39.436;-77.514;2023-12-04T03:18:29;6;6;
80692;PMS5003;70055;39.436;-77.514;2023-12-04T03:20:58;6;6;
80692;PMS5003;70055;39.436;-77.514;2023-12-04T03:23:26;5;5;
80692;PMS5003;70055;39.436;-77.514;2023-12-04T03:25:54;6;6;
80692;PMS5003;70055;39.436;-77.514;2023-12-04T03:28:23;8;8;
80692;PMS5003;70055;39.436;-77.514;2023-12-04T03:30:50;5;5;
80692;PMS5003;70055;39.436;-77.514;2023-12-04T03:33:19;8;8;
80692;PMS5003;70055;39.436;-77.514;2023-12-04T03:35:47;9;8;
80692;PMS5003;70055;39.436;-77.514;2023-12-04T03:38:15;9;9;
80692;PMS5003;70055;39.436;-77.514;2023-12-04T03:40:43;6;6;
80692;PMS5003;70055;39.436;-77.514;2023-12-04T03:43:11;9;7;
80692;PMS5003;70055;39.436;-77.514;2023-12-04T03:45:39;7;7;
80692;PMS5003;70055;39.436;-77.514;2023-12-04T03:48:07;6;6;
80692;PMS5003;70055;39.436;-77.514;2023-12-04T03:50:36;7;5;
80692;PMS5003;70055;39.436;-77.514;2023-12-04T03:53:04;8;8;
80692;PMS5003;70055;39.436;-77.514;2023-12-04T03:55:32;8;8;
80692;PMS5003;70055;39.436;-77.514;2023-12-04T03:58:01;7;7;
80692;PMS5003;70055;39.436;-77.514;2023-12-04T04:00:30;11;11;
80692;PMS5003;70055;39.436;-77.514;2023-12-04T04:02:58;7;7;
80692;PMS5003;70055;39.436;-77.514;2023-12-04T04:05:27;6;6;
80692;PMS5003;70055;39.436;-77.514;2023-12-04T04:07:55;9;9;
80692;PMS5003;70055;39.436;-77.514;2023-12-04T04:10:24;8;7;
80692;PMS5003;70055;39.436;-77.514;2023-12-04T04:12:52;7;7;
80692;PMS5003;70055;39.436;-77.514;2023-12-04T04:15:20;8;8;
80692;PMS5003;70055;39.436;-77.514;2023-12-04T04:17:48;8;8;
80692;PMS5003;70055;39.436;-77.514;2023-12-04T04:20:16;8;8;
80692;PMS5003;70055;39.436;-77.514;2023-12-04T04:22:44;8;8;
80692;PMS5003;70055;39.436;-77.514;2023-12-04T04:25:15;6;6;
80692;PMS5003;70055;39.436;-77.514;2023-12-04T04:27:44;8;8;
80692;PMS5003;70055;39.436;-77.514;2023-12-04T04:30:12;6;6;
80692;PMS5003;70055;39.436;-77.514;2023-12-04T04:32:41;8;6;
80692;PMS5003;70055;39.436;-77.514;2023-12-04T04:35:09;9;8;
80692;PMS5003;70055;39.436;-77.514;2023-12-04T04:37:37;5;5;
80692;PMS5003;70055;39.436;-77.514;2023-12-04T04:40:06;7;7;
80692;PMS5003;70055;39.436;-77.514;2023-12-04T04:42:34;7;7;
80692;PMS5003;70055;39.436;-77.514;2023-12-04T04:45:02;5;5;
80692;PMS5003;70055;39.436;-77.514;2023-12-04T04:47:31;7;5;
80692;PMS5003;70055;39.436;-77.514;2023-12-04T04:49:59;7;7;
80692;PMS5003;70055;39.436;-77.514;2023-12-04T04:52:28;7;7;
80692;PMS5003;70055;39.436;-77.514;2023-12-04T04:54:56;5;5;
80692;PMS5003;70055;39.436;-77.514;2023-12-04T04:57:24;7;7;
80692;PMS5003;70055;39.436;-77.514;2023-12-04T04:59:52;7;7;
80692;PMS5003;70055;39.436;-77.514;2023-12-04T05:02:20;5;5;
80692;PMS5003;70055;39.436;-77.514;2023-12-04T05:04:49;7;7;
80692;PMS5003;70055;39.436;-77.514;2023-12-04T05:07:17;5;5;
80692;PMS5003;70055;39.436;-77.514;2023-12-04T05:09:45;8;8;
80692;PMS5003;70055;39.436;-77.514;2023-12-04T05:12:14;7;7;
80692;PMS5003;70055;39.436;-77.514;2023-12-04T05:14:42;5;5;
80692;PMS5003;70055;39.436;-77.514;2023-12-04T05:17:11;5;5;
80692;PMS5003;70055;39.436;-77.514;2023-12-04T05:19:40;4;4;
80692;PMS5003;70055;39.436;-77.514;2023-12-04T05:22:08;4;4;
80692;PMS5003;70055;39.436;-77.514;2023-12-04T05:24:36;7;7;
80692;PMS5003;70055;39.436;-77.514;2023-12-04T05:27:05;5;5;
80692;PMS5003;70055;39.436;-77.514;2023-12-04T05:29:32;7;5;
80692;PMS5003;70055;39.436;-77.514;2023-12-04T05:32:01;6;6;
80692;PMS5003;70055;39.436;-77.514;2023-12-04T05:34:29;7;7;
80692;PMS5003;70055;39.436;-77.514;2023-12-04T05:36:56;4;4;
80692;PMS5003;70055;39.436;-77.514;2023-12-04T05:39:24;4;4;
80692;PMS5003;70055;39.436;-77.514;2023-12-04T05:41:51;4;4;
80692;PMS5003;70055;39.436;-77.514;2023-12-04T05:44:19;4;4;
80692;PMS5003;70055;39.436;-77.514;2023-12-04T05:46:47;7;5;
80692;PMS5003;70055;39.436;-77.514;2023-12-04T05:49:14;7;7;
80692;PMS5003;70055;39.436;-77.514;2023-12-04T05:51:43;6;6;
80692;PMS5003;70055;39.436;-77.514;2023-12-04T05:54:11;4;4;
80692;PMS5003;70055;39.436;-77.514;2023-12-04T05:56:39;5;5;
80692;PMS5003;70055;39.436;-77.514;2023-12-04T05:59:07;4;4;
80692;PMS5003;70055;39.436;-77.514;2023-12-04T06:01:35;4;4;
80692;PMS5003;70055;39.436;-77.514;2023-12-04T06:04:03;4;3;
80692;PMS5003;70055;39.436;-77.514;2023-12-04T06:06:31;5;5;
80692;PMS5003;70055;39.436;-77.514;2023-12-04T06:08:58;3;3;
80692;PMS5003;70055;39.436;-77.514;2023-12-04T06:11:26;4;4;
80692;PMS5003;70055;39.436;-77.514;2023-12-04T06:13:54;4;4;
80692;PMS5003;70055;39.436;-77.514;2023-12-04T06:16:21;6;4;
80692;PMS5003;70055;39.436;-77.514;2023-12-04T06:18:50;4;4;
80692;PMS5003;70055;39.436;-77.514;2023-12-04T06:21:17;6;6;
80692;PMS5003;70055;39.436;-77.514;2023-12-04T06:23:46;4;4;
80692;PMS5003;70055;39.436;-77.514;2023-12-04T06:26:14;6;6;
80692;PMS5003;70055;39.436;-77.514;2023-12-04T06:28:43;4;4;
80692;PMS5003;70055;39.436;-77.514;2023-12-04T06:31:13;4;4;
80692;PMS5003;70055;39.436;-77.514;2023-12-04T06:33:42;7;6;
80692;PMS5003;70055;39.436;-77.514;2023-12-04T06:36:10;4;4;
80692;PMS5003;70055;39.436;-77.514;2023-12-04T06:38:42;6;6;
80692;PMS5003;70055;39.436;-77.514;2023-12-04T06:41:12;6;6;
80692;PMS5003;70055;39.436;-77.514;2023-12-04T06:43:41;4;4;
80692;PMS5003;70055;39.436;-77.514;2023-12-04T06:46:09;7;7;
80692;PMS5003;70055;39.436;-77.514;2023-12-04T06:48:42;6;6;
80692;PMS5003;70055;39.436;-77.514;2023-12-04T06:51:11;6;6;
80692;PMS5003;70055;39.436;-77.514;2023-12-04T06:53:39;8;8;
80692;PMS5003;70055;39.436;-77.514;2023-12-04T06:56:07;8;8;
80692;PMS5003;70055;39.436;-77.514;2023-12-04T06:58:36;8;6;
80692;PMS5003;70055;39.436;-77.514;2023-12-04T07:01:04;6;6;
80692;PMS5003;70055;39.436;-77.514;2023-12-04T07:03:32;7;7;
80692;PMS5003;70055;39.436;-77.514;2023-12-04T07:06:01;9;8;
80692;PMS5003;70055;39.436;-77.514;2023-12-04T07:08:29;8;8;
80692;PMS5003;70055;39.436;-77.514;2023-12-04T07:10:57;9;8;
80692;PMS5003;70055;39.436;-77.514;2023-12-04T07:13:25;8;7;
80692;PMS5003;70055;39.436;-77.514;2023-12-04T07:15:53;8;8;
80692;PMS5003;70055;39.436;-77.514;2023-12-04T07:18:21;15;14;
80692;PMS5003;70055;39.436;-77.514;2023-12-04T07:20:49;9;9;
80692;PMS5003;70055;39.436;-77.514;2023-12-04T07:23:16;7;7;
80692;PMS5003;70055;39.436;-77.514;2023-12-04T07:25:44;7;7;
80692;PMS5003;70055;39.436;-77.514;2023-12-04T07:28:12;8;8;
80692;PMS5003;70055;39.436;-77.514;2023-12-04T07:30:40;8;8;
80692;PMS5003;70055;39.436;-77.514;2023-12-04T07:33:08;7;7;
80692;PMS5003;70055;39.436;-77.514;2023-12-04T07:35:36;8;8;
80692;PMS5003;70055;39.436;-77.514;2023-12-04T07:38:03;8;8;
80692;PMS5003;70055;39.436;-77.514;2023-12-04T07:40:31;10;9;
80692;PMS5003;70055;39.436;-77.514;2023-12-04T07:42:58;8;7;
80692;PMS5003;70055;39.436;-77.514;2023-12-04T07:45:26;8;8;
80692;PMS5003;70055;39.436;-77.514;2023-12-04T07:47:54;7;7;
80692;PMS5003;70055;39.436;-77.514;2023-12-04T07:50:22;7;7;
80692;PMS5003;70055;39.436;-77.514;2023-12-04T07:52:49;7;7;
80692;PMS5003;70055;39.436;-77.514;2023-12-04T07:55:17;8;7;
80692;PMS5003;70055;39.436;-77.514;2023-12-04T07:57:45;8;7;
80692;PMS5003;70055;39.436;-77.514;2023-12-04T08:00:14;6;6;
80692;PMS5003;70055;39.436;-77.514;2023-12-04T08:02:43;8;7;
80692;PMS5003;70055;39.436;-77.514;2023-12-04T08:05:11;8;8;
80692;PMS5003;70055;39.436;-77.514;2023-12-04T08:07:39;7;7;
80692;PMS5003;70055;39.436;-77.514;2023-12-04T08:10:08;7;7;
80692;PMS5003;70055;39.436;-77.514;2023-12-04T08:12:36;7;7;
80692;PMS5003;70055;39.436;-77.514;2023-12-04T08:15:04;7;7;
80692;PMS5003;70055;39.436;-77.514;2023-12-04T08:17:33;8;8;
80692;PMS5003;70055;39.436;-77.514;2023-12-04T08:20:02;7;6;
80692;PMS5003;70055;39.436;-77.514;2023-12-04T08:22:30;10;8;
80692;PMS5003;70055;39.436;-77.514;2023-12-04T08:24:57;8;7;
80692;PMS5003;70055;39.436;-77.514;2023-12-04T08:27:26;10;10;
80692;PMS5003;70055;39.436;-77.514;2023-12-04T08:29:53;7;7;
80692;PMS5003;70055;39.436;-77.514;2023-12-04T08:32:22;8;8;
80692;PMS5003;70055;39.436;-77.514;2023-12-04T08:34:50;8;8;
80692;PMS5003;70055;39.436;-77.514;2023-12-04T08:37:18;8;8;
80692;PMS5003;70055;39.436;-77.514;2023-12-04T08:39:46;6;6;
80692;PMS5003;70055;39.436;-77.514;2023-12-04T08:42:15;7;7;
80692;PMS5003;70055;39.436;-77.514;2023-12-04T08:44:43;6;5;
80692;PMS5003;70055;39.436;-77.514;2023-12-04T08:47:11;7;7;
80692;PMS5003;70055;39.436;-77.514;2023-12-04T08:49:40;8;8;
80692;PMS5003;70055;39.436;-77.514;2023-12-04T08:52:07;7;7;
80692;PMS5003;70055;39.436;-77.514;2023-12-04T08:54:35;8;8;
80692;PMS5003;70055;39.436;-77.514;2023-12-04T08:57:06;10;8;
80692;PMS5003;70055;39.436;-77.514;2023-12-04T08:59:33;12;11;
80692;PMS5003;70055;39.436;-77.514;2023-12-04T09:02:02;8;8;
80692;PMS5003;70055;39.436;-77.514;2023-12-04T09:04:30;7;7;
80692;PMS5003;70055;39.436;-77.514;2023-12-04T09:06:58;8;8;
80692;PMS5003;70055;39.436;-77.514;2023-12-04T09:09:27;11;10;
80692;PMS5003;70055;39.436;-77.514;2023-12-04T09:11:54;8;8;
80692;PMS5003;70055;39.436;-77.514;2023-12-04T09:14:22;8;8;
80692;PMS5003;70055;39.436;-77.514;2023-12-04T09:16:49;8;8;
80692;PMS5003;70055;39.436;-77.514;2023-12-04T09:19:18;10;10;
80692;PMS5003;70055;39.436;-77.514;2023-12-04T09:21:47;10;10;
80692;PMS5003;70055;39.436;-77.514;2023-12-04T09:24:15;11;10;
80692;PMS5003;70055;39.436;-77.514;2023-12-04T09:26:43;8;8;
80692;PMS5003;70055;39.436;-77.514;2023-12-04T09:29:11;7;7;
80692;PMS5003;70055;39.436;-77.514;2023-12-04T09:31:38;9;9;
80692;PMS5003;70055;39.436;-77.514;2023-12-04T09:34:06;9;9;
80692;PMS5003;70055;39.436;-77.514;2023-12-04T09:36:34;9;9;
80692;PMS5003;70055;39.436;-77.514;2023-12-04T09:39:01;10;9;
80692;PMS5003;70055;39.436;-77.514;2023-12-04T09:41:30;10;10;
80692;PMS5003;70055;39.436;-77.514;2023-12-04T09:43:59;10;10;
80692;PMS5003;70055;39.436;-77.514;2023-12-04T09:46:27;9;9;
80692;PMS5003;70055;39.436;-77.514;2023-12-04T09:48:55;9;9;
80692;PMS5003;70055;39.436;-77.514;2023-12-04T09:51:24;10;10;
80692;PMS5003;70055;39.436;-77.514;2023-12-04T09:53:55;9;9;
80692;PMS5003;70055;39.436;-77.514;2023-12-04T09:56:27;10;10;
80692;PMS5003;70055;39.436;-77.514;2023-12-04T09:58:57;10;10;
80692;PMS5003;70055;39.436;-77.514;2023-12-04T10:01:26;11;11;
80692;PMS5003;70055;39.436;-77.514;2023-12-04T10:03:55;10;9;
80692;PMS5003;70055;39.436;-77.514;2023-12-04T10:06:26;10;10;
80692;PMS5003;70055;39.436;-77.514;2023-12-04T10:08:55;9;9;
80692;PMS5003;70055;39.436;-77.514;2023-12-04T10:11:23;11;10;
80692;PMS5003;70055;39.436;-77.514;2023-12-04T10:13:51;9;9;
80692;PMS5003;70055;39.436;-77.514;2023-12-04T10:16:35;9;9;
80692;PMS5003;70055;39.436;-77.514;2023-12-04T10:19:20;7;7;
80692;PMS5003;70055;39.436;-77.514;2023-12-04T10:21:52;9;9;
80692;PMS5003;70055;39.436;-77.514;2023-12-04T10:24:30;10;9;
80692;PMS5003;70055;39.436;-77.514;2023-12-04T10:26:59;9;9;
80692;PMS5003;70055;39.436;-77.514;2023-12-04T10:29:28;7;7;
80692;PMS5003;70055;39.436;-77.514;2023-12-04T10:32:06;11;11;
80692;PMS5003;70055;39.436;-77.514;2023-12-04T10:34:34;7;6;
80692;PMS5003;70055;39.436;-77.514;2023-12-04T10:37:03;10;10;
80692;PMS5003;70055;39.436;-77.514;2023-12-04T10:39:33;10;9;
80692;PMS5003;70055;39.436;-77.514;2023-12-04T10:42:29;11;11;
80692;PMS5003;70055;39.436;-77.514;2023-12-04T10:44:58;9;9;
80692;PMS5003;70055;39.436;-77.514;2023-12-04T10:47:29;10;9;
80692;PMS5003;70055;39.436;-77.514;2023-12-04T10:49:57;10;10;
80692;PMS5003;70055;39.436;-77.514;2023-12-04T10:52:26;9;9;
80692;PMS5003;70055;39.436;-77.514;2023-12-04T10:54:55;10;9;
80692;PMS5003;70055;39.436;-77.514;2023-12-04T10:57:25;10;10;
80692;PMS5003;70055;39.436;-77.514;2023-12-04T10:59:55;12;12;
80692;PMS5003;70055;39.436;-77.514;2023-12-04T11:02:25;8;8;
80692;PMS5003;70055;39.436;-77.514;2023-12-04T11:04:58;10;10;
80692;PMS5003;70055;39.436;-77.514;2023-12-04T11:07:35;10;10;
80692;PMS5003;70055;39.436;-77.514;2023-12-04T11:10:04;10;10;
80692;PMS5003;70055;39.436;-77.514;2023-12-04T11:12:34;10;10;
80692;PMS5003;70055;39.436;-77.514;2023-12-04T11:15:02;8;8;
80692;PMS5003;70055;39.436;-77.514;2023-12-04T11:17:32;10;10;
80692;PMS5003;70055;39.436;-77.514;2023-12-04T11:20:07;10;9;
80692;PMS5003;70055;39.436;-77.514;2023-12-04T11:22:37;10;9;
80692;PMS5003;70055;39.436;-77.514;2023-12-04T11:25:06;12;12;
80692;PMS5003;70055;39.436;-77.514;2023-12-04T11:27:35;12;12;
80692;PMS5003;70055;39.436;-77.514;2023-12-04T11:30:04;11;11;
80692;PMS5003;70055;39.436;-77.514;2023-12-04T11:32:43;14;11;
80692;PMS5003;70055;39.436;-77.514;2023-12-04T11:35:13;14;11;
80692;PMS5003;70055;39.436;-77.514;2023-12-04T11:37:42;11;11;
80692;PMS5003;70055;39.436;-77.514;2023-12-04T11:40:11;12;11;
80692;PMS5003;70055;39.436;-77.514;2023-12-04T11:42:41;11;11;
80692;PMS5003;70055;39.436;-77.514;2023-12-04T11:45:10;11;10;
80692;PMS5003;70055;39.436;-77.514;2023-12-04T11:47:53;10;9;
80692;PMS5003;70055;39.436;-77.514;2023-12-04T11:50:22;13;13;
80692;PMS5003;70055;39.436;-77.514;2023-12-04T11:52:51;10;10;
80692;PMS5003;70055;39.436;-77.514;2023-12-04T11:55:21;11;11;
80692;PMS5003;70055;39.436;-77.514;2023-12-04T11:57:50;13;11;
80692;PMS5003;70055;39.436;-77.514;2023-12-04T12:00:21;11;11;
80692;PMS5003;70055;39.436;-77.514;2023-12-04T12:03:06;10;10;
80692;PMS5003;70055;39.436;-77.514;2023-12-04T12:05:35;11;11;
80692;PMS5003;70055;39.436;-77.514;2023-12-04T12:08:04;13;11;
80692;PMS5003;70055;39.436;-77.514;2023-12-04T12:10:33;9;7;
80692;PMS5003;70055;39.436;-77.514;2023-12-04T12:13:02;10;10;
80692;PMS5003;70055;39.436;-77.514;2023-12-04T12:15:31;10;10;
80692;PMS5003;70055;39.436;-77.514;2023-12-04T12:18:00;14;10;
80692;PMS5003;70055;39.436;-77.514;2023-12-04T12:20:28;10;10;
80692;PMS5003;70055;39.436;-77.514;2023-12-04T12:22:56;11;11;
80692;PMS5003;70055;39.436;-77.514;2023-12-04T12:25:24;10;10;
80692;PMS5003;70055;39.436;-77.514;2023-12-04T12:27:52;11;11;
80692;PMS5003;70055;39.436;-77.514;2023-12-04T12:30:20;10;9;
80692;PMS5003;70055;39.436;-77.514;2023-12-04T12:32:50;14;14;
80692;PMS5003;70055;39.436;-77.514;2023-12-04T12:35:18;10;10;
80692;PMS5003;70055;39.436;-77.514;2023-12-04T12:37:46;9;9;
80692;PMS5003;70055;39.436;-77.514;2023-12-04T12:40:14;9;9;
80692;PMS5003;70055;39.436;-77.514;2023-12-04T12:42:42;10;9;
80692;PMS5003;70055;39.436;-77.514;2023-12-04T12:45:10;9;7;
80692;PMS5003;70055;39.436;-77.514;2023-12-04T12:47:40;11;10;
80692;PMS5003;70055;39.436;-77.514;2023-12-04T12:50:09;10;10;
80692;PMS5003;70055;39.436;-77.514;2023-12-04T12:52:37;10;10;
80692;PMS5003;70055;39.436;-77.514;2023-12-04T12:55:06;10;10;
80692;PMS5003;70055;39.436;-77.514;2023-12-04T12:57:35;10;10;
80692;PMS5003;70055;39.436;-77.514;2023-12-04T13:00:04;10;10;
80692;PMS5003;70055;39.436;-77.514;2023-12-04T13:02:35;12;12;
80692;PMS5003;70055;39.436;-77.514;2023-12-04T13:05:04;10;10;
80692;PMS5003;70055;39.436;-77.514;2023-12-04T13:07:32;10;10;
80692;PMS5003;70055;39.436;-77.514;2023-12-04T13:10:00;12;12;
80692;PMS5003;70055;39.436;-77.514;2023-12-04T13:12:29;10;10;
80692;PMS5003;70055;39.436;-77.514;2023-12-04T13:14:57;10;10;
80692;PMS5003;70055;39.436;-77.514;2023-12-04T13:17:25;10;10;
80692;PMS5003;70055;39.436;-77.514;2023-12-04T13:19:54;8;8;
80692;PMS5003;70055;39.436;-77.514;2023-12-04T13:22:22;8;8;
80692;PMS5003;70055;39.436;-77.514;2023-12-04T13:24:50;9;9;
80692;PMS5003;70055;39.436;-77.514;2023-12-04T13:27:18;9;9;
80692;PMS5003;70055;39.436;-77.514;2023-12-04T13:29:46;7;7;
80692;PMS5003;70055;39.436;-77.514;2023-12-04T13:32:15;8;8;
80692;PMS5003;70055;39.436;-77.514;2023-12-04T13:34:43;8;8;
80692;PMS5003;70055;39.436;-77.514;2023-12-04T13:37:11;8;8;
80692;PMS5003;70055;39.436;-77.514;2023-12-04T13:39:39;8;8;
80692;PMS5003;70055;39.436;-77.514;2023-12-04T13:42:07;8;8;
80692;PMS5003;70055;39.436;-77.514;2023-12-04T13:44:36;8;8;
80692;PMS5003;70055;39.436;-77.514;2023-12-04T13:47:04;8;8;
80692;PMS5003;70055;39.436;-77.514;2023-12-04T13:49:32;9;9;
80692;PMS5003;70055;39.436;-77.514;2023-12-04T13:52:01;8;8;
80692;PMS5003;70055;39.436;-77.514;2023-12-04T13:54:30;8;8;
80692;PMS5003;70055;39.436;-77.514;2023-12-04T13:56:58;9;9;
80692;PMS5003;70055;39.436;-77.514;2023-12-04T13:59:26;8;8;
80692;PMS5003;70055;39.436;-77.514;2023-12-04T14:01:55;8;8;
80692;PMS5003;70055;39.436;-77.514;2023-12-04T14:04:23;9;9;
80692;PMS5003;70055;39.436;-77.514;2023-12-04T14:06:51;10;10;
80692;PMS5003;70055;39.436;-77.514;2023-12-04T14:09:19;11;11;
80692;PMS5003;70055;39.436;-77.514;2023-12-04T14:11:48;12;11;
80692;PMS5003;70055;39.436;-77.514;2023-12-04T14:14:15;14;12;
80692;PMS5003;70055;39.436;-77.514;2023-12-04T14:16:44;10;10;
80692;PMS5003;70055;39.436;-77.514;2023-12-04T14:19:13;12;12;
80692;PMS5003;70055;39.436;-77.514;2023-12-04T14:21:42;11;11;
80692;PMS5003;70055;39.436;-77.514;2023-12-04T14:24:10;15;14;
80692;PMS5003;70055;39.436;-77.514;2023-12-04T14:26:39;14;12;
80692;PMS5003;70055;39.436;-77.514;2023-12-04T14:29:07;11;11;
80692;PMS5003;70055;39.436;-77.514;2023-12-04T14:31:35;13;12;
80692;PMS5003;70055;39.436;-77.514;2023-12-04T14:34:04;10;10;
80692;PMS5003;70055;39.436;-77.514;2023-12-04T14:36:32;12;12;
80692;PMS5003;70055;39.436;-77.514;2023-12-04T14:39:00;11;11;
80692;PMS5003;70055;39.436;-77.514;2023-12-04T14:41:28;12;11;
80692;PMS5003;70055;39.436;-77.514;2023-12-04T14:43:57;10;10;
80692;PMS5003;70055;39.436;-77.514;2023-12-04T14:46:25;10;10;
80692;PMS5003;70055;39.436;-77.514;2023-12-04T14:48:54;12;11;
80692;PMS5003;70055;39.436;-77.514;2023-12-04T14:51:22;11;11;
80692;PMS5003;70055;39.436;-77.514;2023-12-04T14:53:51;11;11;
80692;PMS5003;70055;39.436;-77.514;2023-12-04T14:56:19;11;11;
80692;PMS5003;70055;39.436;-77.514;2023-12-04T14:58:48;10;10;
80692;PMS5003;70055;39.436;-77.514;2023-12-04T15:01:16;10;10;
80692;PMS5003;70055;39.436;-77.514;2023-12-04T15:03:44;9;9;
80692;PMS5003;70055;39.436;-77.514;2023-12-04T15:06:12;11;10;
80692;PMS5003;70055;39.436;-77.514;2023-12-04T15:08:40;10;10;
80692;PMS5003;70055;39.436;-77.514;2023-12-04T15:11:09;9;9;
80692;PMS5003;70055;39.436;-77.514;2023-12-04T15:13:37;11;10;
80692;PMS5003;70055;39.436;-77.514;2023-12-04T15:16:05;10;10;
80692;PMS5003;70055;39.436;-77.514;2023-12-04T15:18:34;10;10;
80692;PMS5003;70055;39.436;-77.514;2023-12-04T15:21:04;8;7;
80692;PMS5003;70055;39.436;-77.514;2023-12-04T15:23:33;10;8;
80692;PMS5003;70055;39.436;-77.514;2023-12-04T15:26:01;8;8;
80692;PMS5003;70055;39.436;-77.514;2023-12-04T15:28:30;7;7;
80692;PMS5003;70055;39.436;-77.514;2023-12-04T15:30:58;8;8;
80692;PMS5003;70055;39.436;-77.514;2023-12-04T15:33:25;8;8;
80692;PMS5003;70055;39.436;-77.514;2023-12-04T15:35:53;8;7;
80692;PMS5003;70055;39.436;-77.514;2023-12-04T15:38:22;10;10;
80692;PMS5003;70055;39.436;-77.514;2023-12-04T15:40:50;8;8;
80692;PMS5003;70055;39.436;-77.514;2023-12-04T15:43:19;7;7;
80692;PMS5003;70055;39.436;-77.514;2023-12-04T15:45:47;9;8;
80692;PMS5003;70055;39.436;-77.514;2023-12-04T15:48:14;8;8;
80692;PMS5003;70055;39.436;-77.514;2023-12-04T15:50:43;9;8;
80692;PMS5003;70055;39.436;-77.514;2023-12-04T15:53:13;8;8;
80692;PMS5003;70055;39.436;-77.514;2023-12-04T15:55:41;8;8;
80692;PMS5003;70055;39.436;-77.514;2023-12-04T15:58:09;11;11;
80692;PMS5003;70055;39.436;-77.514;2023-12-04T16:00:38;9;8;
80692;PMS5003;70055;39.436;-77.514;2023-12-04T16:03:06;10;10;
80692;PMS5003;70055;39.436;-77.514;2023-12-04T16:05:34;9;9;
80692;PMS5003;70055;39.436;-77.514;2023-12-04T16:08:02;11;11;
80692;PMS5003;70055;39.436;-77.514;2023-12-04T16:10:31;7;7;
80692;PMS5003;70055;39.436;-77.514;2023-12-04T16:12:59;8;8;